Time;durP1;ratioP1;P1;durP2;ratioP2;P2;SDS_P1;SDS_P2;PMS_P1;PMS_P2;Temp;Humidity;BMP_temperature;BMP_pressure;BME280_temperature;BME280_humidity;BME280_pressure;Samples;Min_cycle;Max_cycle;Signal;HPM_P1;HPM_P2
2022/11/21 00:01:39;;;;;;;69.13;26.92;;;;;;;;;;5071401;28;20387;-42
2022/11/21 00:04:04;;;;;;;69.03;27.60;;;;;;;;;;5072434;28;20447;-40
2022/11/21 00:06:30;;;;;;;72.30;29.30;;;;;;;;;;5072299;28;20021;-39
2022/11/21 00:08:55;;;;;;;63.78;27.35;;;;;;;;;;5072165;28;20033;-43
2022/11/21 00:11:20;;;;;;;64.90;28.50;;;;;;;;;;5072922;28;20021;-41
2022/11/21 00:13:46;;;;;;;60.33;25.73;;;;;;;;;;5071526;28;20025;-38
2022/11/21 00:16:12;;;;;;;59.72;26.67;;;;;;;;;;5072076;28;20020;-43
2022/11/21 00:18:37;;;;;;;62.83;26.83;;;;;;;;;;5071694;28;20040;-38
2022/11/21 00:21:16;;;;;;;63.72;27.38;;;;;;;;;;5071767;28;20024;-43
2022/11/21 00:23:42;;;;;;;68.70;26.92;;;;;;;;;;5072037;28;20017;-41
2022/11/21 00:26:08;;;;;;;64.25;25.75;;;;;;;;;;5071881;28;20046;-40
2022/11/21 00:28:34;;;;;;;67.03;27.75;;;;;;;;;;5071708;28;20139;-41
2022/11/21 00:30:59;;;;;;;61.25;28.05;;;;;;;;;;5071630;28;20486;-39
2022/11/21 00:33:25;;;;;;;61.15;26.30;;;;;;;;;;5071597;28;20506;-39
2022/11/21 00:35:50;;;;;;;58.47;25.80;;;;;;;;;;5072815;28;20104;-42
2022/11/21 00:38:15;;;;;;;57.22;25.92;;;;;;;;;;5071838;28;20372;-43
2022/11/21 00:40:43;;;;;;;53.88;25.10;;;;;;;;;;5071864;28;20024;-40
2022/11/21 00:43:09;;;;;;;60.88;26.40;;;;;;;;;;5071763;28;20029;-43
2022/11/21 00:45:34;;;;;;;61.45;26.23;;;;;;;;;;5071942;28;20392;-41
2022/11/21 00:47:59;;;;;;;60.85;25.38;;;;;;;;;;5071474;28;20057;-43
2022/11/21 00:50:25;;;;;;;68.38;28.25;;;;;;;;;;5071556;28;20049;-36
2022/11/21 00:52:53;;;;;;;70.07;28.77;;;;;;;;;;5071749;28;20022;-41
2022/11/21 00:55:18;;;;;;;62.80;27.80;;;;;;;;;;5071471;28;20046;-40
2022/11/21 00:57:44;;;;;;;71.80;29.80;;;;;;;;;;5071703;28;20068;-41
2022/11/21 01:00:09;;;;;;;69.40;30.15;;;;;;;;;;5072637;28;20021;-39
2022/11/21 01:02:34;;;;;;;73.32;29.08;;;;;;;;;;5071532;28;20025;-42
2022/11/21 01:05:00;;;;;;;72.20;30.60;;;;;;;;;;5071548;28;20379;-40
2022/11/21 01:07:25;;;;;;;69.28;29.05;;;;;;;;;;5071770;28;20075;-42
2022/11/21 01:09:50;;;;;;;68.43;29.90;;;;;;;;;;5071337;28;20130;-39
2022/11/21 01:12:15;;;;;;;73.60;29.75;;;;;;;;;;5071409;28;20021;-38
2022/11/21 01:14:41;;;;;;;68.22;28.30;;;;;;;;;;5071571;28;20068;-40
2022/11/21 01:17:06;;;;;;;71.15;29.80;;;;;;;;;;5071631;28;20029;-38
2022/11/21 01:19:31;;;;;;;71.63;28.90;;;;;;;;;;5071924;28;20017;-39
2022/11/21 01:21:56;;;;;;;71.53;29.35;;;;;;;;;;5072014;28;20446;-41
2022/11/21 01:24:22;;;;;;;65.05;28.63;;;;;;;;;;5071472;28;20029;-38
2022/11/21 01:26:49;;;;;;;68.95;29.80;;;;;;;;;;5073044;28;20019;-43
2022/11/21 01:29:15;;;;;;;65.28;29.17;;;;;;;;;;5074997;28;20089;-41
2022/11/21 01:31:41;;;;;;;65.88;28.60;;;;;;;;;;5074818;28;20025;-41
2022/11/21 01:34:06;;;;;;;62.75;27.83;;;;;;;;;;5075177;28;20013;-43
2022/11/21 01:36:32;;;;;;;62.75;26.95;;;;;;;;;;5075060;28;20514;-42
2022/11/21 01:38:59;;;;;;;66.00;28.58;;;;;;;;;;5075123;28;20479;-41
2022/11/21 01:41:27;;;;;;;66.10;29.65;;;;;;;;;;5075552;28;20021;-41
2022/11/21 01:43:52;;;;;;;63.47;28.02;;;;;;;;;;5074902;28;20024;-40
2022/11/21 01:46:18;;;;;;;70.03;29.77;;;;;;;;;;5074568;28;20025;-42
2022/11/21 01:48:46;;;;;;;67.00;27.92;;;;;;;;;;5074572;28;20115;-43
2022/11/21 01:51:12;;;;;;;67.75;28.25;;;;;;;;;;5074752;28;20078;-41
2022/11/21 01:53:37;;;;;;;63.05;27.60;;;;;;;;;;5058162;28;20025;-44
2022/11/21 01:56:03;;;;;;;69.40;28.77;;;;;;;;;;5072112;28;20044;-42
2022/11/21 01:58:30;;;;;;;68.97;26.67;;;;;;;;;;5074537;28;20032;-42
2022/11/21 02:00:55;;;;;;;69.97;29.35;;;;;;;;;;5074274;28;20162;-41
2022/11/21 02:03:22;;;;;;;64.65;27.77;;;;;;;;;;5074475;28;20474;-43
2022/11/21 02:05:47;;;;;;;67.18;28.08;;;;;;;;;;5075422;28;20364;-40
2022/11/21 02:08:16;;;;;;;62.95;27.42;;;;;;;;;;5074403;28;20017;-42
2022/11/21 02:10:46;;;;;;;58.65;25.67;;;;;;;;;;5074651;28;20059;-39
2022/11/21 02:13:11;;;;;;;61.30;25.73;;;;;;;;;;5073602;28;20096;-41
2022/11/21 02:15:37;;;;;;;57.78;26.75;;;;;;;;;;5062989;28;20028;-42
2022/11/21 02:18:02;;;;;;;66.43;27.40;;;;;;;;;;5055789;28;20087;-42
2022/11/21 02:20:27;;;;;;;59.35;25.23;;;;;;;;;;5055671;28;20376;-41
2022/11/21 02:22:53;;;;;;;56.47;25.20;;;;;;;;;;5055461;28;20021;-40
2022/11/21 02:25:19;;;;;;;56.65;25.48;;;;;;;;;;5055570;28;20029;-42
2022/11/21 02:27:45;;;;;;;61.25;26.45;;;;;;;;;;5055360;28;20471;-43
2022/11/21 02:30:10;;;;;;;60.97;25.42;;;;;;;;;;5054645;28;20036;-42
2022/11/21 02:32:37;;;;;;;56.35;25.05;;;;;;;;;;5055321;28;20441;-39
2022/11/21 02:35:02;;;;;;;61.72;25.20;;;;;;;;;;5055192;28;20056;-39
2022/11/21 02:37:28;;;;;;;54.63;24.42;;;;;;;;;;5054968;28;20055;-40
2022/11/21 02:39:54;;;;;;;56.38;24.50;;;;;;;;;;5055218;28;20419;-39
2022/11/21 02:42:33;;;;;;;61.03;25.90;;;;;;;;;;5055094;28;20017;-43
2022/11/21 02:45:17;;;;;;;58.33;25.52;;;;;;;;;;5055356;28;20025;-41
2022/11/21 02:47:42;;;;;;;59.17;26.35;;;;;;;;;;5055104;28;20052;-39
2022/11/21 02:50:15;;;;;;;57.25;25.08;;;;;;;;;;5054896;28;20096;-40
2022/11/21 02:52:41;;;;;;;57.47;25.50;;;;;;;;;;5054890;28;20029;-41
2022/11/21 02:55:06;;;;;;;54.35;24.77;;;;;;;;;;5054747;28;20568;-40
2022/11/21 02:57:32;;;;;;;54.53;24.48;;;;;;;;;;5054837;28;20096;-37
2022/11/21 02:59:57;;;;;;;58.88;26.00;;;;;;;;;;5054700;28;20025;-40
2022/11/21 03:02:22;;;;;;;58.83;25.95;;;;;;;;;;5054938;28;20017;-39
2022/11/21 03:04:47;;;;;;;56.60;26.92;;;;;;;;;;5054878;28;20028;-41
2022/11/21 03:07:13;;;;;;;63.28;27.15;;;;;;;;;;5054613;28;20029;-39
2022/11/21 03:09:38;;;;;;;66.35;27.30;;;;;;;;;;5054492;28;20384;-41
2022/11/21 03:12:04;;;;;;;60.63;26.75;;;;;;;;;;5054893;28;20021;-37
2022/11/21 03:14:29;;;;;;;62.13;27.05;;;;;;;;;;5054753;28;20025;-41
2022/11/21 03:16:55;;;;;;;57.65;24.00;;;;;;;;;;5054636;28;20017;-39
2022/11/21 03:19:20;;;;;;;56.25;24.95;;;;;;;;;;5053868;28;20036;-39
2022/11/21 03:21:45;;;;;;;51.35;23.23;;;;;;;;;;5054317;28;20024;-41
2022/11/21 03:24:10;;;;;;;52.75;24.13;;;;;;;;;;5054165;28;20376;-39
2022/11/21 03:26:36;;;;;;;65.63;26.63;;;;;;;;;;5054345;28;20092;-41
2022/11/21 03:29:01;;;;;;;55.28;25.40;;;;;;;;;;5054314;28;20033;-38
2022/11/21 03:31:26;;;;;;;69.10;28.73;;;;;;;;;;5054189;28;20021;-39
2022/11/21 03:33:51;;;;;;;63.75;27.30;;;;;;;;;;5054103;28;20054;-36
2022/11/21 03:36:17;;;;;;;59.08;26.77;;;;;;;;;;5054067;28;20059;-39
2022/11/21 03:38:42;;;;;;;60.22;26.80;;;;;;;;;;5053359;28;20028;-37
2022/11/21 03:41:28;;;;;;;73.38;28.83;;;;;;;;;;5054170;28;20046;-36
2022/11/21 03:43:52;;;;;;;66.45;26.58;;;;;;;;;;5071388;28;20028;-36
2022/11/21 03:46:18;;;;;;;65.75;28.30;;;;;;;;;;5072499;28;20024;-41
2022/11/21 03:48:43;;;;;;;64.32;26.67;;;;;;;;;;5071613;28;20525;-37
2022/11/21 03:51:08;;;;;;;66.93;29.63;;;;;;;;;;5072382;28;20044;-39
2022/11/21 03:53:33;;;;;;;62.53;27.77;;;;;;;;;;5072455;28;20025;-38
2022/11/21 03:55:59;;;;;;;61.60;27.77;;;;;;;;;;5072341;28;20086;-40
2022/11/21 03:58:24;;;;;;;75.70;29.80;;;;;;;;;;5072295;28;20455;-42
2022/11/21 04:00:49;;;;;;;68.93;27.25;;;;;;;;;;5072216;28;20079;-37
2022/11/21 04:03:14;;;;;;;65.80;28.80;;;;;;;;;;5072224;28;20016;-41
2022/11/21 04:05:39;;;;;;;70.10;28.65;;;;;;;;;;5072961;28;20052;-39
2022/11/21 04:08:05;;;;;;;65.80;27.85;;;;;;;;;;5071897;28;20021;-39
2022/11/21 04:10:30;;;;;;;57.85;26.13;;;;;;;;;;5072140;28;20032;-40
2022/11/21 04:12:55;;;;;;;59.78;26.52;;;;;;;;;;5072383;28;20095;-41
2022/11/21 04:15:20;;;;;;;58.92;26.95;;;;;;;;;;5072046;28;20047;-42
2022/11/21 04:17:46;;;;;;;54.83;25.15;;;;;;;;;;5071687;28;20024;-44
2022/11/21 04:20:11;;;;;;;63.60;25.90;;;;;;;;;;5071845;28;20183;-39
2022/11/21 04:22:36;;;;;;;56.13;25.17;;;;;;;;;;5071581;28;20044;-40
2022/11/21 04:25:01;;;;;;;51.50;22.88;;;;;;;;;;5072066;28;20024;-39
2022/11/21 04:27:27;;;;;;;55.08;25.83;;;;;;;;;;5073076;28;20028;-43
2022/11/21 04:29:52;;;;;;;57.10;25.85;;;;;;;;;;5070697;28;20503;-38
2022/11/21 04:32:17;;;;;;;52.05;23.10;;;;;;;;;;5071624;28;20489;-42
2022/11/21 04:34:42;;;;;;;50.90;23.02;;;;;;;;;;5071759;28;20074;-39
2022/11/21 04:37:08;;;;;;;56.42;23.27;;;;;;;;;;5071634;28;20020;-41
2022/11/21 04:39:33;;;;;;;47.53;23.13;;;;;;;;;;5071923;28;20024;-41
2022/11/21 04:41:58;;;;;;;51.28;23.98;;;;;;;;;;5071801;28;20029;-42
2022/11/21 04:44:24;;;;;;;53.70;23.75;;;;;;;;;;5071675;28;20099;-40
2022/11/21 04:46:49;;;;;;;45.58;22.27;;;;;;;;;;5072390;28;20033;-40
2022/11/21 04:49:14;;;;;;;49.25;22.92;;;;;;;;;;5071931;28;20028;-42
2022/11/21 04:51:39;;;;;;;50.72;23.67;;;;;;;;;;5071421;28;20049;-40
2022/11/21 04:54:05;;;;;;;49.80;23.40;;;;;;;;;;5071549;28;20024;-43
2022/11/21 04:56:30;;;;;;;53.17;24.58;;;;;;;;;;5070404;28;20171;-43
2022/11/21 04:58:55;;;;;;;52.13;24.38;;;;;;;;;;5071705;28;20487;-39
2022/11/21 05:01:20;;;;;;;48.42;22.95;;;;;;;;;;5074166;28;20111;-40
2022/11/21 05:03:45;;;;;;;56.03;24.02;;;;;;;;;;5075578;28;20091;-43
2022/11/21 05:06:11;;;;;;;50.92;23.13;;;;;;;;;;5076295;28;20017;-44
2022/11/21 05:08:36;;;;;;;53.03;23.23;;;;;;;;;;5075651;28;20037;-37
2022/11/21 05:13:45;;;;;;;43.90;22.13;;;;;;;;;;5075135;28;20085;-40
2022/11/21 05:16:11;;;;;;;53.92;22.63;;;;;;;;;;5075282;28;20666;-38
2022/11/21 05:18:36;;;;;;;49.85;23.25;;;;;;;;;;5075172;28;20400;-39
2022/11/21 05:21:02;;;;;;;49.35;23.52;;;;;;;;;;5074915;28;20478;-41
2022/11/21 05:23:27;;;;;;;48.45;21.38;;;;;;;;;;5075223;28;20048;-43
2022/11/21 05:25:52;;;;;;;42.80;21.83;;;;;;;;;;5073880;28;20048;-43
2022/11/21 05:28:18;;;;;;;47.92;22.15;;;;;;;;;;5074823;28;20025;-45
2022/11/21 05:30:43;;;;;;;48.58;23.13;;;;;;;;;;5074927;28;20012;-42
2022/11/21 05:33:08;;;;;;;53.28;23.58;;;;;;;;;;5074631;28;20070;-42
2022/11/21 05:35:33;;;;;;;50.33;23.58;;;;;;;;;;5075555;28;20024;-41
2022/11/21 05:37:59;;;;;;;48.42;23.13;;;;;;;;;;5074997;28;20031;-41
2022/11/21 05:40:24;;;;;;;45.60;22.70;;;;;;;;;;5074616;28;20459;-38
2022/11/21 05:45:33;;;;;;;47.70;21.95;;;;;;;;;;5074784;28;20115;-43
2022/11/21 05:47:58;;;;;;;42.97;21.58;;;;;;;;;;5074306;28;20059;-41
2022/11/21 05:50:23;;;;;;;52.00;22.73;;;;;;;;;;5074501;28;20057;-42
2022/11/21 05:52:48;;;;;;;47.33;22.58;;;;;;;;;;5074611;28;20039;-42
2022/11/21 05:55:14;;;;;;;45.28;22.48;;;;;;;;;;5074532;28;20471;-43
2022/11/21 05:57:39;;;;;;;47.88;21.88;;;;;;;;;;5074484;28;20038;-38
2022/11/21 06:00:05;;;;;;;43.38;21.58;;;;;;;;;;5075396;28;20917;-42
2022/11/21 06:05:13;;;;;;;43.28;22.40;;;;;;;;;;5074350;28;20434;-44
2022/11/21 06:07:39;;;;;;;48.05;23.58;;;;;;;;;;5074712;28;20028;-40
2022/11/21 06:10:04;;;;;;;48.83;23.40;;;;;;;;;;5073931;28;20036;-37
2022/11/21 06:12:30;;;;;;;39.70;20.25;;;;;;;;;;5073509;28;20024;-43
2022/11/21 06:14:55;;;;;;;56.45;23.58;;;;;;;;;;5073996;28;20054;-43
2022/11/21 06:17:20;;;;;;;64.85;24.45;;;;;;;;;;5073003;28;20111;-43
2022/11/21 06:19:45;;;;;;;65.45;22.75;;;;;;;;;;5074137;28;20016;-43
2022/11/21 06:22:11;;;;;;;58.42;22.95;;;;;;;;;;5074566;28;20028;-41
2022/11/21 06:24:36;;;;;;;62.28;23.40;;;;;;;;;;5074851;28;20368;-40
2022/11/21 06:27:01;;;;;;;61.13;23.85;;;;;;;;;;5074097;28;20031;-39
2022/11/21 06:29:26;;;;;;;55.22;23.58;;;;;;;;;;5073845;28;20028;-39
2022/11/21 06:31:54;;;;;;;67.35;23.80;;;;;;;;;;5073724;28;20020;-41
2022/11/21 06:34:19;;;;;;;54.17;22.58;;;;;;;;;;5073913;28;20104;-43
2022/11/21 06:36:45;;;;;;;54.05;23.00;;;;;;;;;;5070306;28;20112;-46
2022/11/21 06:39:10;;;;;;;53.58;23.88;;;;;;;;;;5072433;28;20020;-42
2022/11/21 06:41:35;;;;;;;50.70;22.52;;;;;;;;;;5066540;28;20017;-41
2022/11/21 06:44:01;;;;;;;47.47;22.23;;;;;;;;;;5073724;28;20021;-40
2022/11/21 06:46:26;;;;;;;54.17;22.60;;;;;;;;;;5064283;28;20029;-41
2022/11/21 06:48:52;;;;;;;59.05;22.00;;;;;;;;;;5054467;28;20037;-41
2022/11/21 06:51:18;;;;;;;49.22;21.73;;;;;;;;;;5053088;28;20071;-44
2022/11/21 06:53:44;;;;;;;56.95;22.73;;;;;;;;;;5060685;28;20027;-43
2022/11/21 06:56:09;;;;;;;63.05;25.92;;;;;;;;;;5061744;28;20025;-43
2022/11/21 06:58:35;;;;;;;76.30;27.85;;;;;;;;;;5054693;28;20090;-40
2022/11/21 07:01:08;;;;;;;66.13;25.25;;;;;;;;;;5065457;28;20028;-43
2022/11/21 07:03:33;;;;;;;58.35;26.02;;;;;;;;;;5070665;28;20028;-43
2022/11/21 07:06:00;;;;;;;61.45;25.52;;;;;;;;;;5067942;28;20033;-43
2022/11/21 07:08:26;;;;;;;75.78;27.02;;;;;;;;;;5056115;28;20025;-45
2022/11/21 07:10:52;;;;;;;73.32;27.83;;;;;;;;;;5058507;28;20475;-44
2022/11/21 07:13:20;;;;;;;65.38;27.02;;;;;;;;;;5056050;28;20135;-43
2022/11/21 07:15:46;;;;;;;73.97;26.17;;;;;;;;;;5056429;28;20024;-44
2022/11/21 07:18:12;;;;;;;72.78;26.20;;;;;;;;;;5064277;28;20490;-45
2022/11/21 07:20:38;;;;;;;80.35;29.92;;;;;;;;;;5054604;28;20067;-44
2022/11/21 07:23:03;;;;;;;74.82;28.02;;;;;;;;;;5057474;28;20028;-44
2022/11/21 07:25:29;;;;;;;56.78;25.08;;;;;;;;;;5057641;28;20044;-47
2022/11/21 07:27:57;;;;;;;62.80;26.05;;;;;;;;;;5058844;28;20502;-43
2022/11/21 07:30:22;;;;;;;61.83;26.30;;;;;;;;;;5060707;28;20112;-45
2022/11/21 07:32:53;;;;;;;67.68;26.90;;;;;;;;;;5057459;28;20040;-41
2022/11/21 07:35:18;;;;;;;74.85;30.52;;;;;;;;;;5056952;28;20028;-42
2022/11/21 07:37:44;;;;;;;81.50;28.45;;;;;;;;;;5067444;28;20031;-44
2022/11/21 07:40:09;;;;;;;73.28;28.58;;;;;;;;;;5066402;28;20024;-44
2022/11/21 07:42:34;;;;;;;66.88;27.13;;;;;;;;;;5053867;28;20017;-38
2022/11/21 07:58:11;;;;;;;74.28;23.33;;;;;;;;;;5830830;22;2296394;-34
2022/11/21 08:00:38;;;;;;;48.88;20.27;;;;;;;;;;6160814;23;20016;-36
2022/11/21 08:03:05;;;;;;;49.53;19.45;;;;;;;;;;6184943;23;20533;-38
2022/11/21 08:05:34;;;;;;;57.55;17.85;;;;;;;;;;6190051;23;20098;-33
2022/11/21 08:11:06;;;;;;;45.92;17.23;;;;;;;;;;6189717;23;20047;-33
2022/11/21 08:13:56;;;;;;;41.75;17.15;;;;;;;;;;6199305;22;20023;-34
2022/11/21 08:16:23;;;;;;;44.67;17.13;;;;;;;;;;6247151;23;20026;-31
2022/11/21 08:18:50;;;;;;;52.60;17.75;;;;;;;;;;6248159;23;20008;-33
2022/11/21 08:21:15;;;;;;;47.10;17.52;;;;;;;;;;6249302;23;19996;-32
2022/11/21 08:23:40;;;;;;;40.47;18.00;;;;;;;;;;6249707;23;20442;-31
2022/11/21 08:26:07;;;;;;;36.97;16.92;;;;;;;;;;6247436;23;20587;-35
2022/11/21 08:28:33;;;;;;;45.47;15.52;;;;;;;;;;6246680;23;19993;-34
2022/11/21 08:31:01;;;;;;;40.13;15.13;;;;;;;;;;6247191;23;20272;-32
2022/11/21 08:33:27;;;;;;;35.03;14.75;;;;;;;;;;6249560;23;20000;-32
2022/11/21 08:35:52;;;;;;;31.42;14.88;;;;;;;;;;6250411;23;20076;-34
2022/11/21 08:38:17;;;;;;;28.27;13.75;;;;;;;;;;6250046;23;20003;-34
2022/11/21 08:40:43;;;;;;;34.08;13.82;;;;;;;;;;6250601;23;20003;-34
2022/11/21 08:43:08;;;;;;;27.52;12.88;;;;;;;;;;6249054;23;20008;-34
2022/11/21 08:45:34;;;;;;;25.98;13.88;;;;;;;;;;6247074;23;20400;-34
2022/11/21 08:47:59;;;;;;;32.67;12.50;;;;;;;;;;6249994;23;20387;-34
2022/11/21 08:50:25;;;;;;;21.00;9.60;;;;;;;;;;6248803;23;19996;-36
2022/11/21 08:52:50;;;;;;;24.05;13.15;;;;;;;;;;6196694;23;20406;-33
2022/11/21 08:55:15;;;;;;;24.95;12.88;;;;;;;;;;6244163;23;20000;-32
2022/11/21 08:57:41;;;;;;;21.25;11.88;;;;;;;;;;6214618;23;20089;-33
2022/11/21 09:00:07;;;;;;;23.38;11.20;;;;;;;;;;6216918;23;20002;-32
2022/11/21 09:02:33;;;;;;;24.45;11.50;;;;;;;;;;6242903;23;19989;-33
2022/11/21 09:04:58;;;;;;;19.95;11.57;;;;;;;;;;6243099;23;20058;-33
2022/11/21 09:07:24;;;;;;;20.52;10.98;;;;;;;;;;6241728;23;20004;-33
2022/11/21 09:09:49;;;;;;;24.42;11.20;;;;;;;;;;6241696;23;19996;-33
2022/11/21 09:12:15;;;;;;;18.08;10.68;;;;;;;;;;6238603;23;20477;-33
2022/11/21 09:20:08;;;;;;;16.02;9.35;;;;;;;;;;6211511;23;20050;-34
2022/11/21 09:22:33;;;;;;;20.17;9.90;;;;;;;;;;6185798;23;20108;-34
2022/11/21 09:24:58;;;;;;;20.05;9.00;;;;;;;;;;6212752;23;20013;-33
2022/11/21 09:27:24;;;;;;;26.55;9.75;;;;;;;;;;6187187;23;20482;-34
2022/11/21 09:29:49;;;;;;;18.00;9.68;;;;;;;;;;6212752;23;20320;-34
2022/11/21 09:32:14;;;;;;;17.65;10.20;;;;;;;;;;6214400;23;19992;-34
2022/11/21 09:34:40;;;;;;;19.88;10.88;;;;;;;;;;6185966;23;19993;-36
2022/11/21 09:37:05;;;;;;;16.10;9.68;;;;;;;;;;6213348;23;20320;-34
2022/11/21 09:39:30;;;;;;;16.77;9.13;;;;;;;;;;6211785;23;19996;-36
2022/11/21 09:42:14;;;;;;;14.18;8.15;;;;;;;;;;6213016;23;20004;-33
2022/11/21 09:44:57;;;;;;;20.92;9.23;;;;;;;;;;6213317;23;20008;-33
2022/11/21 09:47:36;;;;;;;12.45;7.85;;;;;;;;;;6214603;23;20028;-35
2022/11/21 09:50:13;;;;;;;15.00;8.30;;;;;;;;;;6214680;23;20418;-35
2022/11/21 09:52:47;;;;;;;13.13;7.53;;;;;;;;;;6211991;23;19997;-34
2022/11/21 09:55:31;;;;;;;12.35;7.80;;;;;;;;;;6212438;23;19996;-34
2022/11/21 09:57:59;;;;;;;12.93;7.70;;;;;;;;;;6214241;23;20005;-34
2022/11/21 10:00:25;;;;;;;19.50;7.78;;;;;;;;;;6212181;23;19997;-34
2022/11/21 10:02:51;;;;;;;11.60;7.18;;;;;;;;;;6212211;23;20498;-35
2022/11/21 10:05:19;;;;;;;11.32;7.72;;;;;;;;;;6186592;23;20007;-35
2022/11/21 10:07:44;;;;;;;12.75;7.10;;;;;;;;;;6213553;23;19989;-34
2022/11/21 10:10:09;;;;;;;10.80;6.80;;;;;;;;;;6211694;23;19996;-36
2022/11/21 10:13:13;;;;;;;12.98;7.72;;;;;;;;;;6212391;23;20004;-35
2022/11/21 10:15:42;;;;;;;10.98;6.45;;;;;;;;;;6089692;23;20323;-34
2022/11/21 10:18:26;;;;;;;13.10;7.85;;;;;;;;;;6092805;23;20096;-34
2022/11/21 10:20:54;;;;;;;12.60;6.93;;;;;;;;;;6165553;23;20006;-33
2022/11/21 10:23:29;;;;;;;11.18;7.03;;;;;;;;;;6213274;23;20005;-35
2022/11/21 10:26:08;;;;;;;11.73;7.15;;;;;;;;;;6210685;23;20053;-35
2022/11/21 10:28:40;;;;;;;10.45;6.68;;;;;;;;;;6211061;23;20523;-33
2022/11/21 10:31:09;;;;;;;11.32;7.13;;;;;;;;;;6212245;23;20024;-33
2022/11/21 10:33:39;;;;;;;10.30;7.15;;;;;;;;;;6209378;23;19997;-33
2022/11/21 10:36:16;;;;;;;11.30;7.00;;;;;;;;;;6211463;23;20000;-33
2022/11/21 10:38:43;;;;;;;13.40;7.53;;;;;;;;;;6210092;23;19996;-34
2022/11/21 10:41:11;;;;;;;9.98;6.65;;;;;;;;;;6213698;23;20020;-34
2022/11/21 10:46:26;;;;;;;14.95;7.22;;;;;;;;;;6211089;23;20139;-34
2022/11/21 10:48:57;;;;;;;11.43;7.07;;;;;;;;;;6210979;23;19993;-34
2022/11/21 10:51:42;;;;;;;11.20;7.55;;;;;;;;;;6210236;23;20084;-34
2022/11/21 10:56:54;;;;;;;11.75;7.47;;;;;;;;;;6210578;23;20018;-34
2022/11/21 10:59:22;;;;;;;12.68;7.68;;;;;;;;;;6212348;23;20000;-34
2022/11/21 11:01:57;;;;;;;19.60;8.05;;;;;;;;;;6214447;23;20046;-35
2022/11/21 11:04:23;;;;;;;12.68;8.25;;;;;;;;;;6211921;23;20008;-34
2022/11/21 11:06:48;;;;;;;12.52;8.50;;;;;;;;;;6213367;23;19993;-34
2022/11/21 11:09:23;;;;;;;14.20;9.02;;;;;;;;;;6213391;23;19996;-33
2022/11/21 11:11:49;;;;;;;13.55;8.38;;;;;;;;;;6212036;23;20308;-34
2022/11/21 11:14:15;;;;;;;12.27;7.95;;;;;;;;;;6209032;23;20012;-34
2022/11/21 11:16:45;;;;;;;17.02;9.23;;;;;;;;;;6210990;23;20000;-35
2022/11/21 11:19:13;;;;;;;17.08;9.60;;;;;;;;;;6211201;23;20007;-34
2022/11/21 11:21:38;;;;;;;13.48;8.88;;;;;;;;;;6212493;23;20011;-34
2022/11/21 11:24:09;;;;;;;15.68;8.82;;;;;;;;;;6210723;23;20013;-35
2022/11/21 11:26:49;;;;;;;20.65;9.57;;;;;;;;;;6212358;23;20042;-34
2022/11/21 11:29:17;;;;;;;26.83;12.70;;;;;;;;;;6213969;23;19996;-33
2022/11/21 11:31:43;;;;;;;30.42;15.07;;;;;;;;;;6213905;23;20028;-33
2022/11/21 11:34:10;;;;;;;16.35;10.13;;;;;;;;;;6213994;23;20004;-33
2022/11/21 11:36:38;;;;;;;18.60;9.90;;;;;;;;;;6214091;23;20004;-34
2022/11/21 11:39:10;;;;;;;21.73;11.15;;;;;;;;;;6207387;23;19997;-35
2022/11/21 11:47:29;;;;;;;17.60;9.73;;;;;;;;;;6212554;23;20007;-34
2022/11/21 11:50:11;;;;;;;16.77;9.63;;;;;;;;;;6210480;23;20104;-35
2022/11/21 11:52:42;;;;;;;13.85;8.90;;;;;;;;;;6182676;23;20008;-35
2022/11/21 11:55:14;;;;;;;20.55;11.23;;;;;;;;;;6185208;23;20312;-33
2022/11/21 11:57:40;;;;;;;15.65;9.68;;;;;;;;;;6213145;23;19999;-34
2022/11/21 12:00:13;;;;;;;18.85;10.52;;;;;;;;;;6210718;23;20080;-35
2022/11/21 12:03:04;;;;;;;13.95;9.32;;;;;;;;;;6211878;23;19988;-35
2022/11/21 12:05:30;;;;;;;15.95;9.40;;;;;;;;;;6167252;23;20009;-34
2022/11/21 12:08:08;;;;;;;14.57;8.57;;;;;;;;;;6214071;23;20000;-35
2022/11/21 12:12:05;;;;;;;13.95;8.68;;;;;;;;;;6214380;23;20104;-35
2022/11/21 12:13:26;;;;;;;19.40;7.80;;;;;;;;;;6211809;23;20363;-34
2022/11/21 12:15:54;;;;;;;15.32;8.63;;;;;;;;;;6209400;23;20047;-32
2022/11/21 12:18:20;;;;;;;15.98;7.90;;;;;;;;;;6210326;23;19996;-32
2022/11/21 12:21:04;;;;;;;12.65;7.60;;;;;;;;;;6210218;23;19997;-34
2022/11/21 12:23:47;;;;;;;14.75;9.35;;;;;;;;;;6184678;23;20336;-33
2022/11/21 12:26:12;;;;;;;11.20;7.25;;;;;;;;;;6212732;23;20559;-32
2022/11/21 12:28:56;;;;;;;12.63;6.93;;;;;;;;;;6212346;23;19993;-32
2022/11/21 12:31:31;;;;;;;14.57;8.20;;;;;;;;;;6213493;23;20004;-32
2022/11/21 12:34:11;;;;;;;12.43;7.20;;;;;;;;;;6214783;23;20059;-33
2022/11/21 12:36:55;;;;;;;15.27;7.18;;;;;;;;;;6214931;23;20003;-33
2022/11/21 12:39:47;;;;;;;11.23;7.53;;;;;;;;;;6212666;23;20467;-34
2022/11/21 12:45:11;;;;;;;11.63;7.53;;;;;;;;;;6213706;23;20095;-34
2022/11/21 12:56:49;;;;;;;13.25;8.38;;;;;;;;;;6211569;23;20020;-34
2022/11/21 12:59:14;;;;;;;16.90;8.40;;;;;;;;;;6196349;23;20035;-34
2022/11/21 13:01:43;;;;;;;15.40;9.10;;;;;;;;;;6211807;23;20561;-34
2022/11/21 13:04:10;;;;;;;13.48;9.07;;;;;;;;;;6211200;23;20004;-34
2022/11/21 13:06:38;;;;;;;15.98;9.35;;;;;;;;;;6212773;23;20067;-34
2022/11/21 13:09:06;;;;;;;19.25;11.55;;;;;;;;;;6185832;23;20003;-33
2022/11/21 13:11:58;;;;;;;15.32;9.93;;;;;;;;;;6183457;23;19992;-34
2022/11/21 13:14:23;;;;;;;19.55;9.75;;;;;;;;;;6211370;23;20067;-34
2022/11/21 13:16:53;;;;;;;17.13;10.37;;;;;;;;;;6213728;23;19997;-34
2022/11/21 13:19:34;;;;;;;14.88;9.52;;;;;;;;;;6212086;23;20210;-34
2022/11/21 13:21:59;;;;;;;20.10;9.85;;;;;;;;;;6187139;23;20004;-33
2022/11/21 13:24:43;;;;;;;14.65;8.70;;;;;;;;;;6186563;23;20239;-33
2022/11/21 13:27:22;;;;;;;15.68;8.18;;;;;;;;;;6212346;23;20005;-33
2022/11/21 13:30:05;;;;;;;10.77;7.47;;;;;;;;;;6213072;23;20034;-33
2022/11/21 13:32:36;;;;;;;11.55;8.30;;;;;;;;;;6212557;23;20078;-34
2022/11/21 13:35:02;;;;;;;14.95;8.82;;;;;;;;;;6212006;23;20046;-34
2022/11/21 13:37:46;;;;;;;12.55;8.70;;;;;;;;;;6213410;23;20348;-33
2022/11/21 13:40:26;;;;;;;11.00;8.23;;;;;;;;;;6211578;23;20070;-33
2022/11/21 13:43:04;;;;;;;15.30;9.10;;;;;;;;;;6186607;23;20008;-32
2022/11/21 13:45:36;;;;;;;13.77;9.95;;;;;;;;;;6213145;23;20184;-34
2022/11/21 13:48:22;;;;;;;17.88;10.30;;;;;;;;;;6214403;23;20293;-33
2022/11/21 13:50:47;;;;;;;20.05;11.43;;;;;;;;;;6152834;23;19997;-33
2022/11/21 13:53:26;;;;;;;20.33;11.80;;;;;;;;;;6214846;23;20450;-34
2022/11/21 13:55:53;;;;;;;26.63;13.45;;;;;;;;;;6214716;23;20000;-33
2022/11/21 13:58:18;;;;;;;28.08;15.38;;;;;;;;;;6214204;23;20054;-33
2022/11/21 14:01:06;;;;;;;30.00;14.40;;;;;;;;;;6214439;23;19997;-33
2022/11/21 14:03:51;;;;;;;31.08;15.82;;;;;;;;;;6187501;23;20107;-33
2022/11/21 14:06:25;;;;;;;34.05;17.05;;;;;;;;;;6214391;23;20083;-33
2022/11/21 14:09:11;;;;;;;33.03;16.30;;;;;;;;;;6215019;23;20004;-34
2022/11/21 14:11:47;;;;;;;28.52;15.13;;;;;;;;;;6166782;23;20004;-34
2022/11/21 14:14:21;;;;;;;26.05;14.50;;;;;;;;;;6214203;23;20013;-33
2022/11/21 14:16:48;;;;;;;24.13;13.98;;;;;;;;;;6214857;23;20016;-33
2022/11/21 14:19:17;;;;;;;20.83;13.10;;;;;;;;;;6212530;23;19996;-34
2022/11/21 14:21:44;;;;;;;21.98;12.63;;;;;;;;;;6212067;23;20000;-34
2022/11/21 14:24:14;;;;;;;20.80;12.18;;;;;;;;;;6211242;23;20012;-34
2022/11/21 14:26:43;;;;;;;25.98;13.52;;;;;;;;;;6186736;23;20001;-34
2022/11/21 14:29:21;;;;;;;19.05;12.70;;;;;;;;;;6212757;23;20000;-33
2022/11/21 14:31:47;;;;;;;17.42;11.27;;;;;;;;;;6212867;23;20037;-33
2022/11/21 14:34:12;;;;;;;25.88;11.27;;;;;;;;;;6212889;23;20001;-35
2022/11/21 14:36:39;;;;;;;18.70;11.40;;;;;;;;;;6212859;23;20003;-33
2022/11/21 14:39:06;;;;;;;21.48;10.48;;;;;;;;;;6212255;23;20388;-35
2022/11/21 14:41:33;;;;;;;19.67;10.82;;;;;;;;;;6213351;23;20047;-35
2022/11/21 14:43:58;;;;;;;20.45;10.35;;;;;;;;;;6185590;23;20450;-34
2022/11/21 14:46:29;;;;;;;20.63;11.70;;;;;;;;;;6214901;23;20024;-33
2022/11/21 14:48:56;;;;;;;19.75;11.98;;;;;;;;;;6213219;23;20007;-32
2022/11/21 14:51:25;;;;;;;22.75;12.10;;;;;;;;;;6214293;23;20344;-33
2022/11/21 14:53:51;;;;;;;;;;;;;;;;;;6213224;23;20075;-33
2022/11/21 14:56:27;;;;;;;30.27;15.25;;;;;;;;;;6214155;23;19903;-33
2022/11/21 14:58:54;;;;;;;27.52;14.75;;;;;;;;;;6214589;23;20100;-33
2022/11/21 15:01:20;;;;;;;20.75;12.75;;;;;;;;;;6214901;23;20047;-33
2022/11/21 15:04:02;;;;;;;23.23;13.88;;;;;;;;;;6214453;23;20047;-33
2022/11/21 15:06:32;;;;;;;25.95;14.70;;;;;;;;;;6214070;23;20308;-35
2022/11/21 15:08:58;;;;;;;31.90;17.50;;;;;;;;;;6213454;23;20025;-32
2022/11/21 15:11:44;;;;;;;30.25;15.98;;;;;;;;;;6214295;23;20355;-32
2022/11/21 15:14:29;;;;;;;24.80;14.15;;;;;;;;;;6190238;23;20016;-32
2022/11/21 15:16:56;;;;;;;31.85;15.98;;;;;;;;;;6192430;23;20000;-34
2022/11/21 15:19:23;;;;;;;23.80;14.55;;;;;;;;;;6211514;23;19996;-33
2022/11/21 15:21:53;;;;;;;25.33;14.45;;;;;;;;;;6213859;23;19999;-33